Time;durP1;ratioP1;P1;durP2;ratioP2;P2;SDS_P1;SDS_P2;PMS_P1;PMS_P2;Temp;Humidity;BMP_temperature;BMP_pressure;BME280_temperature;BME280_humidity;BME280_pressure;Samples;Min_cycle;Max_cycle;Signal;HPM_P1;HPM_P2
2021/08/21 00:01:02;;;;;;;;;;;;;;;;;;5133643;28;19928;-76
2021/08/21 00:03:28;;;;;;;;;;;;;;;;;;5135511;27;19927;-75
2021/08/21 00:05:54;;;;;;;;;;;;;;;;;;5137979;27;19924;-76
2021/08/21 00:08:21;;;;;;;;;;;;;;;;;;5137719;27;19923;-75
2021/08/21 00:10:47;;;;;;;;;;;;;;;;;;5137931;27;19946;-75
2021/08/21 00:13:13;;;;;;;;;;;;;;;;;;5137798;27;19930;-76
2021/08/21 00:15:39;;;;;;;;;;;;;;;;;;5137280;27;20301;-75
2021/08/21 00:18:06;;;;;;;;;;;;;;;;;;5137715;27;19924;-75
2021/08/21 00:20:32;;;;;;;;;;;;;;;;;;5136858;27;20393;-75
2021/08/21 00:22:58;;;;;;;;;;;;;;;;;;5137604;27;19924;-76
2021/08/21 00:25:25;;;;;;;;;;;;;;;;;;5137101;27;19930;-75
2021/08/21 00:27:51;;;;;;;;;;;;;;;;;;5137601;27;19923;-75
2021/08/21 00:30:17;;;;;;;;;;;;;;;;;;5137138;27;19925;-75
2021/08/21 00:32:43;;;;;;;;;;;;;;;;;;5137159;27;19923;-75
2021/08/21 00:35:10;;;;;;;;;;;;;;;;;;5137156;27;20008;-75
2021/08/21 00:37:36;;;;;;;;;;;;;;;;;;5137160;27;19924;-76
2021/08/21 00:40:02;;;;;;;;;;;;;;;;;;5137037;27;19935;-75
2021/08/21 00:42:29;;;;;;;;;;;;;;;;;;5137182;27;19931;-76
2021/08/21 00:44:55;;;;;;;;;;;;;;;;;;5136850;27;19924;-75
2021/08/21 00:47:21;;;;;;;;;;;;;;;;;;5136988;27;19923;-75
2021/08/21 00:49:47;;;;;;;;;;;;;;;;;;5136809;27;19924;-75
2021/08/21 00:52:14;;;;;;;;;;;;;;;;;;5136964;27;19945;-75
2021/08/21 00:54:40;;;;;;;;;;;;;;;;;;5136523;27;19927;-75
2021/08/21 00:57:06;;;;;;;;;;;;;;;;;;5137011;27;19931;-75
2021/08/21 00:59:32;;;;;;;;;;;;;;;;;;5136673;27;19928;-75
2021/08/21 01:01:59;;;;;;;;;;;;;;;;;;5136946;27;20001;-75
2021/08/21 01:04:25;;;;;;;;;;;;;;;;;;5136162;27;19927;-75
2021/08/21 01:06:51;;;;;;;;;;;;;;;;;;5136738;27;19923;-75
2021/08/21 01:09:18;;;;;;;;;;;;;;;;;;5136525;27;19927;-76
2021/08/21 01:11:44;;;;;;;;;;;;;;;;;;5136504;27;19946;-76
2021/08/21 01:14:10;;;;;;;;;;;;;;;;;;5136319;27;19924;-75
2021/08/21 01:16:36;;;;;;;;;;;;;;;;;;5136310;27;19923;-75
2021/08/21 01:19:03;;;;;;;;;;;;;;;;;;5136416;27;19935;-76
2021/08/21 01:21:29;;;;;;;;;;;;;;;;;;5135965;27;19924;-76
2021/08/21 01:23:55;;;;;;;;;;;;;;;;;;5136115;27;19923;-76
2021/08/21 01:26:22;;;;;;;;;;;;;;;;;;5136215;27;19924;-76
2021/08/21 01:28:48;;;;;;;;;;;;;;;;;;5135970;27;19923;-76
2021/08/21 01:31:14;;;;;;;;;;;;;;;;;;5136279;27;19946;-76
2021/08/21 01:33:40;;;;;;;;;;;;;;;;;;5135736;27;20119;-75
2021/08/21 01:36:07;;;;;;;;;;;;;;;;;;5136306;27;19923;-75
2021/08/21 01:38:33;;;;;;;;;;;;;;;;;;5135675;27;19960;-75
2021/08/21 01:40:59;;;;;;;;;;;;;;;;;;5136171;27;19924;-75
2021/08/21 01:43:26;;;;;;;;;;;;;;;;;;5135329;27;19935;-75
2021/08/21 01:45:52;;;;;;;;;;;;;;;;;;5136046;27;19946;-75
2021/08/21 01:48:18;;;;;;;;;;;;;;;;;;5135723;27;19924;-75
2021/08/21 01:50:45;;;;;;;;;;;;;;;;;;5135775;27;19931;-75
2021/08/21 01:53:12;;;;;;;;;;;;;;;;;;5135853;27;20238;-75
2021/08/21 01:55:38;;;;;;;;;;;;;;;;;;5135354;27;20000;-75
2021/08/21 01:58:04;;;;;;;;;;;;;;;;;;5135426;27;20298;-75
2021/08/21 02:00:30;;;;;;;;;;;;;;;;;;5135560;27;19924;-75
2021/08/21 02:02:57;;;;;;;;;;;;;;;;;;5135464;27;20368;-75
2021/08/21 02:05:23;;;;;;;;;;;;;;;;;;5135225;27;19927;-75
2021/08/21 02:07:49;;;;;;;;;;;;;;;;;;5135381;27;19923;-75
2021/08/21 02:10:16;;;;;;;;;;;;;;;;;;5135633;27;19930;-75
2021/08/21 02:12:42;;;;;;;;;;;;;;;;;;5135008;27;19924;-75
2021/08/21 02:15:08;;;;;;;;;;;;;;;;;;5135404;27;19924;-76
2021/08/21 02:17:34;;;;;;;;;;;;;;;;;;5134827;27;19931;-76
2021/08/21 02:20:01;;;;;;;;;;;;;;;;;;5135138;27;19924;-75
2021/08/21 02:22:27;;;;;;;;;;;;;;;;;;5134822;27;19923;-76
2021/08/21 02:24:55;;;;;;;;;;;;;;;;;;5134926;27;19935;-76
2021/08/21 02:27:26;;;;;;;;;;;;;;;;;;5134440;27;20021;-76
2021/08/21 02:29:52;;;;;;;;;;;;;;;;;;5135128;27;20022;-75
2021/08/21 02:32:18;;;;;;;;;;;;;;;;;;5134835;27;20373;-75
2021/08/21 02:34:44;;;;;;;;;;;;;;;;;;5134854;27;19923;-76
2021/08/21 02:37:12;;;;;;;;;;;;;;;;;;5134964;27;19924;-76
2021/08/21 02:39:38;;;;;;;;;;;;;;;;;;5134802;27;19946;-75
2021/08/21 02:42:05;;;;;;;;;;;;;;;;;;5134694;27;19923;-75
2021/08/21 02:44:31;;;;;;;;;;;;;;;;;;5134514;27;19930;-76
2021/08/21 02:46:57;;;;;;;;;;;;;;;;;;5134553;27;19923;-76
2021/08/21 02:49:24;;;;;;;;;;;;;;;;;;5134498;27;19931;-75
2021/08/21 02:51:50;;;;;;;;;;;;;;;;;;5134467;27;19923;-75
2021/08/21 02:54:16;;;;;;;;;;;;;;;;;;5134739;27;19924;-75
2021/08/21 02:56:42;;;;;;;;;;;;;;;;;;5134030;27;19924;-75
2021/08/21 02:59:09;;;;;;;;;;;;;;;;;;5134243;27;20381;-75
2021/08/21 03:01:35;;;;;;;;;;;;;;;;;;5134362;27;19924;-76
2021/08/21 03:04:01;;;;;;;;;;;;;;;;;;5134088;27;20362;-75
2021/08/21 03:06:28;;;;;;;;;;;;;;;;;;5134251;27;19923;-75
2021/08/21 03:08:54;;;;;;;;;;;;;;;;;;5134069;27;20394;-75
2021/08/21 03:11:20;;;;;;;;;;;;;;;;;;5134384;27;19923;-75
2021/08/21 03:13:46;;;;;;;;;;;;;;;;;;5133996;27;20289;-75
2021/08/21 03:16:13;;;;;;;;;;;;;;;;;;5134331;27;19924;-75
2021/08/21 03:18:39;;;;;;;;;;;;;;;;;;5133739;27;20402;-75
2021/08/21 03:21:05;;;;;;;;;;;;;;;;;;5133852;27;19923;-75
2021/08/21 03:23:32;;;;;;;;;;;;;;;;;;5133781;27;20289;-76
2021/08/21 03:25:58;;;;;;;;;;;;;;;;;;5133820;27;19924;-76
2021/08/21 03:28:25;;;;;;;;;;;;;;;;;;5133560;27;19928;-75
2021/08/21 03:30:51;;;;;;;;;;;;;;;;;;5133826;27;20373;-75
2021/08/21 03:33:17;;;;;;;;;;;;;;;;;;5133956;27;19924;-75
2021/08/21 03:35:43;;;;;;;;;;;;;;;;;;5133365;27;20404;-75
2021/08/21 03:38:10;;;;;;;;;;;;;;;;;;5133151;27;19923;-75
2021/08/21 03:40:36;;;;;;;;;;;;;;;;;;5133442;27;20370;-75
2021/08/21 03:43:02;;;;;;;;;;;;;;;;;;5133934;27;19924;-75
2021/08/21 03:45:28;;;;;;;;;;;;;;;;;;5133575;27;19923;-76
2021/08/21 03:47:55;;;;;;;;;;;;;;;;;;5134181;27;19930;-75
2021/08/21 03:50:21;;;;;;;;;;;;;;;;;;5133347;27;19931;-76
2021/08/21 03:52:47;;;;;;;;;;;;;;;;;;5133827;27;19923;-76
2021/08/21 03:55:14;;;;;;;;;;;;;;;;;;5133442;27;19934;-76
2021/08/21 03:57:41;;;;;;;;;;;;;;;;;;5133476;27;19976;-75
2021/08/21 04:00:07;;;;;;;;;;;;;;;;;;5133807;28;19947;-75
2021/08/21 04:02:33;;;;;;;;;;;;;;;;;;5133185;28;19924;-75
2021/08/21 04:04:59;;;;;;;;;;;;;;;;;;5133632;28;19931;-75
2021/08/21 04:07:26;;;;;;;;;;;;;;;;;;5132975;28;19935;-76
2021/08/21 04:09:52;;;;;;;;;;;;;;;;;;5133682;28;19923;-75
2021/08/21 04:12:18;;;;;;;;;;;;;;;;;;5133323;28;20005;-75
2021/08/21 04:14:44;;;;;;;;;;;;;;;;;;5133250;28;19935;-75
2021/08/21 04:17:11;;;;;;;;;;;;;;;;;;5133294;28;19930;-76
2021/08/21 04:19:37;;;;;;;;;;;;;;;;;;5132909;28;19923;-75
2021/08/21 04:22:03;;;;;;;;;;;;;;;;;;5133363;28;19931;-76
2021/08/21 04:24:30;;;;;;;;;;;;;;;;;;5133207;28;19931;-76
2021/08/21 04:26:56;;;;;;;;;;;;;;;;;;5133196;28;19931;-75
2021/08/21 04:29:22;;;;;;;;;;;;;;;;;;5133132;28;19930;-75
2021/08/21 04:31:48;;;;;;;;;;;;;;;;;;5133034;28;19923;-76
2021/08/21 04:34:15;;;;;;;;;;;;;;;;;;5133716;28;19934;-76
2021/08/21 04:36:41;;;;;;;;;;;;;;;;;;5132775;28;19935;-75
2021/08/21 04:39:07;;;;;;;;;;;;;;;;;;5133416;28;19931;-75
2021/08/21 04:41:34;;;;;;;;;;;;;;;;;;5132839;28;19923;-75
2021/08/21 04:44:00;;;;;;;;;;;;;;;;;;5133292;28;19924;-75
2021/08/21 04:46:26;;;;;;;;;;;;;;;;;;5132680;28;19927;-76
2021/08/21 04:48:52;;;;;;;;;;;;;;;;;;5134589;27;19923;-75
2021/08/21 04:51:19;;;;;;;;;;;;;;;;;;5136782;27;19923;-75
2021/08/21 04:53:45;;;;;;;;;;;;;;;;;;5137191;27;20277;-75
2021/08/21 04:56:11;;;;;;;;;;;;;;;;;;5136676;27;19923;-75
2021/08/21 04:58:38;;;;;;;;;;;;;;;;;;5136750;27;19923;-75
2021/08/21 05:01:04;;;;;;;;;;;;;;;;;;5136984;27;19923;-75
2021/08/21 05:03:30;;;;;;;;;;;;;;;;;;5136234;27;20305;-75
2021/08/21 05:05:56;;;;;;;;;;;;;;;;;;5136796;27;19930;-75
2021/08/21 05:08:23;;;;;;;;;;;;;;;;;;5136284;27;20286;-76
2021/08/21 05:10:49;;;;;;;;;;;;;;;;;;5136770;27;19931;-75
2021/08/21 05:13:15;;;;;;;;;;;;;;;;;;5136425;27;20305;-76
2021/08/21 05:15:41;;;;;;;;;;;;;;;;;;5136357;27;19928;-75
2021/08/21 05:18:09;;;;;;;;;;;;;;;;;;5136575;27;20304;-75
2021/08/21 05:20:43;;;;;;;;;;;;;;;;;;5135773;27;20373;-75
2021/08/21 05:23:14;;;;;;;;;;;;;;;;;;5136245;27;19923;-75
2021/08/21 05:25:40;;;;;;;;;;;;;;;;;;5136225;27;20018;-75
2021/08/21 05:28:06;;;;;;;;;;;;;;;;;;5136149;27;19949;-75
2021/08/21 05:30:33;;;;;;;;;;;;;;;;;;5135921;27;19924;-75
2021/08/21 05:32:59;;;;;;;;;;;;;;;;;;5136036;27;19923;-75
2021/08/21 05:35:25;;;;;;;;;;;;;;;;;;5136018;27;19928;-75
2021/08/21 05:37:52;;;;;;;;;;;;;;;;;;5136281;27;19924;-75
2021/08/21 05:40:18;;;;;;;;;;;;;;;;;;5135885;27;20385;-76
2021/08/21 05:42:44;;;;;;;;;;;;;;;;;;5135708;27;19927;-75
2021/08/21 05:45:10;;;;;;;;;;;;;;;;;;5135738;27;19930;-75
2021/08/21 05:47:37;;;;;;;;;;;;;;;;;;5135828;27;19924;-75
2021/08/21 05:50:03;;;;;;;;;;;;;;;;;;5135720;27;19924;-75
2021/08/21 05:52:29;;;;;;;;;;;;;;;;;;5135649;27;19924;-76
2021/08/21 05:54:56;;;;;;;;;;;;;;;;;;5135563;27;19942;-76
2021/08/21 05:57:22;;;;;;;;;;;;;;;;;;5135671;27;19931;-75
2021/08/21 05:59:48;;;;;;;;;;;;;;;;;;5134996;27;19923;-76
2021/08/21 06:02:14;;;;;;;;;;;;;;;;;;5135303;27;20009;-75
2021/08/21 06:04:41;;;;;;;;;;;;;;;;;;5135135;27;20389;-75
2021/08/21 06:07:07;;;;;;;;;;;;;;;;;;5135608;27;19923;-75
2021/08/21 06:09:33;;;;;;;;;;;;;;;;;;5135124;27;19923;-76
2021/08/21 06:12:00;;;;;;;;;;;;;;;;;;5135449;27;19929;-75
2021/08/21 06:14:26;;;;;;;;;;;;;;;;;;5134951;27;19954;-76
2021/08/21 06:16:52;;;;;;;;;;;;;;;;;;5136483;27;19923;-75
2021/08/21 06:19:18;;;;;;;;;;;;;;;;;;5134952;27;19951;-75
2021/08/21 06:21:45;;;;;;;;;;;;;;;;;;5134583;27;19923;-75
2021/08/21 06:24:11;;;;;;;;;;;;;;;;;;5135331;27;19924;-76
2021/08/21 06:26:37;;;;;;;;;;;;;;;;;;5134657;27;19924;-75
2021/08/21 06:29:04;;;;;;;;;;;;;;;;;;5135213;27;19923;-75
2021/08/21 06:31:30;;;;;;;;;;;;;;;;;;5134785;27;20018;-75
2021/08/21 06:33:56;;;;;;;;;;;;;;;;;;5134807;27;20416;-76
2021/08/21 06:36:23;;;;;;;;;;;;;;;;;;5134804;27;19923;-75
2021/08/21 06:38:49;;;;;;;;;;;;;;;;;;5134671;27;19930;-75
2021/08/21 06:41:15;;;;;;;;;;;;;;;;;;5134930;27;19923;-76
2021/08/21 06:43:41;;;;;;;;;;;;;;;;;;5135442;27;19927;-75
2021/08/21 06:46:08;;;;;;;;;;;;;;;;;;5134821;27;19931;-75
2021/08/21 06:48:34;;;;;;;;;;;;;;;;;;5134044;27;19930;-75
2021/08/21 06:51:01;;;;;;;;;;;;;;;;;;5134795;27;19939;-76
2021/08/21 06:53:29;;;;;;;;;;;;;;;;;;5134498;27;19927;-75
2021/08/21 06:55:55;;;;;;;;;;;;;;;;;;5134303;27;19931;-75
2021/08/21 06:58:22;;;;;;;;;;;;;;;;;;5134456;27;19931;-75
2021/08/21 07:00:49;;;;;;;;;;;;;;;;;;5134601;27;19946;-75
2021/08/21 07:03:15;;;;;;;;;;;;;;;;;;5134445;27;19924;-75
2021/08/21 07:05:41;;;;;;;;;;;;;;;;;;5133889;27;19934;-75
2021/08/21 07:08:08;;;;;;;;;;;;;;;;;;5134384;27;19931;-75
2021/08/21 07:10:34;;;;;;;;;;;;;;;;;;5133830;27;19934;-75
2021/08/21 07:13:00;;;;;;;;;;;;;;;;;;5134240;27;19939;-76
2021/08/21 07:15:26;;;;;;;;;;;;;;;;;;5133625;27;19928;-75
2021/08/21 07:17:53;;;;;;;;;;;;;;;;;;5134320;27;19928;-76
2021/08/21 07:20:19;;;;;;;;;;;;;;;;;;5133667;27;19924;-76
2021/08/21 07:22:45;;;;;;;;;;;;;;;;;;5133986;27;19924;-75
2021/08/21 07:25:11;;;;;;;;;;;;;;;;;;5133720;27;19924;-76
2021/08/21 07:27:38;;;;;;;;;;;;;;;;;;5133923;27;19923;-76
2021/08/21 07:30:04;;;;;;;;;;;;;;;;;;5134109;27;19923;-76
2021/08/21 07:32:30;;;;;;;;;;;;;;;;;;5133540;27;20397;-76
2021/08/21 07:34:57;;;;;;;;;;;;;;;;;;5133744;27;19927;-75
2021/08/21 07:37:23;;;;;;;;;;;;;;;;;;5133684;27;19963;-76
2021/08/21 07:39:49;;;;;;;;;;;;;;;;;;5133588;27;19923;-76
2021/08/21 07:42:16;;;;;;;;;;;;;;;;;;5133954;27;19923;-76
2021/08/21 07:44:42;;;;;;;;;;;;;;;;;;5133363;27;19924;-76
2021/08/21 07:47:08;;;;;;;;;;;;;;;;;;5133539;27;19945;-75
2021/08/21 07:49:34;;;;;;;;;;;;;;;;;;5133265;27;19931;-76
2021/08/21 07:52:01;;;;;;;;;;;;;;;;;;5133808;27;19923;-76
2021/08/21 07:54:27;;;;;;;;;;;;;;;;;;5133264;27;19928;-75
2021/08/21 07:56:53;;;;;;;;;;;;;;;;;;5133703;27;19930;-76
2021/08/21 07:59:20;;;;;;;;;;;;;;;;;;5133403;28;20392;-76
2021/08/21 08:01:46;;;;;;;;;;;;;;;;;;5133442;28;20017;-76
2021/08/21 08:04:12;;;;;;;;;;;;;;;;;;5133618;28;19943;-76
2021/08/21 08:06:38;;;;;;;;;;;;;;;;;;5133080;28;19930;-75
2021/08/21 08:09:05;;;;;;;;;;;;;;;;;;5133594;28;19923;-75
2021/08/21 08:11:31;;;;;;;;;;;;;;;;;;5133002;28;19930;-75
2021/08/21 08:13:57;;;;;;;;;;;;;;;;;;5133630;28;19950;-76
2021/08/21 08:16:24;;;;;;;;;;;;;;;;;;5133041;28;19923;-75
2021/08/21 08:18:50;;;;;;;;;;;;;;;;;;5133532;28;19930;-75
2021/08/21 08:21:18;;;;;;;;;;;;;;;;;;5132967;28;19931;-75
2021/08/21 08:23:44;;;;;;;;;;;;;;;;;;5134322;27;20003;-75
2021/08/21 08:26:11;;;;;;;;;;;;;;;;;;5137219;27;19923;-75
2021/08/21 08:28:37;;;;;;;;;;;;;;;;;;5137702;27;19928;-75
2021/08/21 08:31:03;;;;;;;;;;;;;;;;;;5137280;27;19923;-76
2021/08/21 08:33:29;;;;;;;;;;;;;;;;;;5137296;27;19931;-76
2021/08/21 08:35:56;;;;;;;;;;;;;;;;;;5137124;27;19930;-76
2021/08/21 08:38:22;;;;;;;;;;;;;;;;;;5137250;27;20378;-76
2021/08/21 08:40:48;;;;;;;;;;;;;;;;;;5137047;27;20018;-76
2021/08/21 08:43:15;;;;;;;;;;;;;;;;;;5137171;27;19924;-76
2021/08/21 08:45:41;;;;;;;;;;;;;;;;;;5136914;27;19927;-76
2021/08/21 08:48:07;;;;;;;;;;;;;;;;;;5136903;27;19927;-76
2021/08/21 08:50:34;;;;;;;;;;;;;;;;;;5136772;27;19930;-76
2021/08/21 08:53:00;;;;;;;;;;;;;;;;;;5136917;27;20100;-76
2021/08/21 08:55:26;;;;;;;;;;;;;;;;;;5136825;27;19934;-76
2021/08/21 08:57:53;;;;;;;;;;;;;;;;;;5136755;27;20373;-76
2021/08/21 09:00:19;;;;;;;;;;;;;;;;;;5136728;27;19930;-75
2021/08/21 09:02:45;;;;;;;;;;;;;;;;;;5136700;27;19923;-76
2021/08/21 09:05:12;;;;;;;;;;;;;;;;;;5136362;27;20376;-76
2021/08/21 09:07:38;;;;;;;;;;;;;;;;;;5136312;27;19927;-76
2021/08/21 09:10:04;;;;;;;;;;;;;;;;;;5136792;27;19924;-76
2021/08/21 09:12:31;;;;;;;;;;;;;;;;;;5136204;27;19923;-76
2021/08/21 09:14:57;;;;;;;;;;;;;;;;;;5136513;27;19923;-76
2021/08/21 09:17:23;;;;;;;;;;;;;;;;;;5136114;27;19923;-76
2021/08/21 09:19:49;;;;;;;;;;;;;;;;;;5136336;27;19924;-76
2021/08/21 09:22:16;;;;;;;;;;;;;;;;;;5136284;27;19924;-76
2021/08/21 09:24:42;;;;;;;;;;;;;;;;;;5136313;27;19934;-76
2021/08/21 09:27:08;;;;;;;;;;;;;;;;;;5135888;27;19928;-76
2021/08/21 09:29:35;;;;;;;;;;;;;;;;;;5136181;27;19924;-76
2021/08/21 09:32:01;;;;;;;;;;;;;;;;;;5136054;27;19923;-76
2021/08/21 09:34:27;;;;;;;;;;;;;;;;;;5135668;27;19923;-76
2021/08/21 09:36:53;;;;;;;;;;;;;;;;;;5135067;27;19929;-76
2021/08/21 09:39:20;;;;;;;;;;;;;;;;;;5136224;27;19946;-76
2021/08/21 09:41:46;;;;;;;;;;;;;;;;;;5135682;27;19935;-76
2021/08/21 09:44:12;;;;;;;;;;;;;;;;;;5136046;27;19930;-76
2021/08/21 09:46:40;;;;;;;;;;;;;;;;;;5135389;27;19927;-76
2021/08/21 09:49:06;;;;;;;;;;;;;;;;;;5136056;27;19923;-76
2021/08/21 09:51:33;;;;;;;;;;;;;;;;;;5135293;27;20369;-76
2021/08/21 09:53:59;;;;;;;;;;;;;;;;;;5136109;27;19930;-76
2021/08/21 09:56:25;;;;;;;;;;;;;;;;;;5135326;27;20370;-76
2021/08/21 09:58:52;;;;;;;;;;;;;;;;;;5135786;27;19924;-76
2021/08/21 10:01:18;;;;;;;;;;;;;;;;;;5135455;27;20403;-76
2021/08/21 10:03:44;;;;;;;;;;;;;;;;;;5135367;27;19924;-76
2021/08/21 10:06:11;;;;;;;;;;;;;;;;;;5135337;27;20291;-76
2021/08/21 10:08:37;;;;;;;;;;;;;;;;;;5135691;27;20321;-76
2021/08/21 10:11:03;;;;;;;;;;;;;;;;;;5135337;27;19923;-76
2021/08/21 10:13:30;;;;;;;;;;;;;;;;;;5135157;27;19930;-76
2021/08/21 10:15:56;;;;;;;;;;;;;;;;;;5135085;27;20349;-76
2021/08/21 10:18:22;;;;;;;;;;;;;;;;;;5134925;27;19923;-76
2021/08/21 10:20:48;;;;;;;;;;;;;;;;;;5135025;27;19950;-76
2021/08/21 10:23:15;;;;;;;;;;;;;;;;;;5135117;27;19923;-76
2021/08/21 10:25:41;;;;;;;;;;;;;;;;;;5135318;27;19935;-75
2021/08/21 10:28:07;;;;;;;;;;;;;;;;;;5134845;27;19924;-75
2021/08/21 10:30:34;;;;;;;;;;;;;;;;;;5135052;27;19931;-76
2021/08/21 10:33:00;;;;;;;;;;;;;;;;;;5134887;27;19924;-75
2021/08/21 10:35:26;;;;;;;;;;;;;;;;;;5134946;27;19931;-75
2021/08/21 10:37:52;;;;;;;;;;;;;;;;;;5134642;27;19924;-75
2021/08/21 10:40:19;;;;;;;;;;;;;;;;;;5135059;27;19934;-76
2021/08/21 10:42:45;;;;;;;;;;;;;;;;;;5134453;27;19931;-75
2021/08/21 10:45:11;;;;;;;;;;;;;;;;;;5135004;27;19923;-75
2021/08/21 10:47:38;;;;;;;;;;;;;;;;;;5133835;27;19923;-75
2021/08/21 10:50:04;;;;;;;;;;;;;;;;;;5134836;27;19923;-76
2021/08/21 10:52:31;;;;;;;;;;;;;;;;;;5134180;27;19931;-76
2021/08/21 10:54:57;;;;;;;;;;;;;;;;;;5134687;27;20289;-76
2021/08/21 10:57:23;;;;;;;;;;;;;;;;;;5134520;27;19931;-75
2021/08/21 10:59:49;;;;;;;;;;;;;;;;;;5134278;27;20386;-75
2021/08/21 11:02:16;;;;;;;;;;;;;;;;;;5134446;27;19923;-76
2021/08/21 11:04:42;;;;;;;;;;;;;;;;;;5134050;27;19923;-76
2021/08/21 11:07:08;;;;;;;;;;;;;;;;;;5134447;27;19930;-76
2021/08/21 11:09:34;;;;;;;;;;;;;;;;;;5133807;27;20368;-76
2021/08/21 11:12:01;;;;;;;;;;;;;;;;;;5134354;27;19923;-76
2021/08/21 11:14:27;;;;;;;;;;;;;;;;;;5133896;27;19935;-76
2021/08/21 11:16:54;;;;;;;;;;;;;;;;;;5134367;27;19924;-76
2021/08/21 11:19:20;;;;;;;;;;;;;;;;;;5133848;27;20354;-76
2021/08/21 11:21:46;;;;;;;;;;;;;;;;;;5133759;27;19924;-76
2021/08/21 11:24:12;;;;;;;;;;;;;;;;;;5133963;27;20301;-75
2021/08/21 11:26:39;;;;;;;;;;;;;;;;;;5133511;27;19934;-76
2021/08/21 11:29:07;;;;;;;;;;;;;;;;;;5133045;27;21438;-76
2021/08/21 11:31:33;;;;;;;;;;;;;;;;;;5133910;27;19928;-68
2021/08/21 11:34:00;;;;;;;;;;;;;;;;;;5133784;27;19923;-68
2021/08/21 11:36:26;;;;;;;;;;;;;;;;;;5133818;27;19923;-69
2021/08/21 11:38:52;;;;;;;;;;;;;;;;;;5133704;27;20447;-68
2021/08/21 11:41:19;;;;;;;;;;;;;;;;;;5133802;27;19927;-68
2021/08/21 11:43:45;;;;;;;;;;;;;;;;;;5133294;27;20392;-68
2021/08/21 11:46:11;;;;;;;;;;;;;;;;;;5133823;27;19931;-67
2021/08/21 11:48:38;;;;;;;;;;;;;;;;;;5132889;27;19931;-67
2021/08/21 11:51:04;;;;;;;;;;;;;;;;;;5133710;27;20010;-67
2021/08/21 11:53:31;;;;;;;;;;;;;;;;;;5133146;27;19931;-67
2021/08/21 11:55:57;;;;;;;;;;;;;;;;;;5133737;27;19923;-67
2021/08/21 11:58:23;;;;;;;;;;;;;;;;;;5132429;27;19924;-67
2021/08/21 12:00:53;;;;;;;;;;;;;;;;;;5133746;28;19927;-67
2021/08/21 12:03:19;;;;;;;;;;;;;;;;;;5133873;28;20009;-67
2021/08/21 12:05:46;;;;;;;;;;;;;;;;;;5133510;28;19923;-67
2021/08/21 12:08:12;;;;;;;;;;;;;;;;;;5133557;28;19923;-67
2021/08/21 12:10:38;;;;;;;;;;;;;;;;;;5133399;28;19935;-67
2021/08/21 12:13:05;;;;;;;;;;;;;;;;;;5133288;28;20297;-67
2021/08/21 12:15:31;;;;;;;;;;;;;;;;;;5132947;28;19923;-67
2021/08/21 12:17:57;;;;;;;;;;;;;;;;;;5133512;28;19946;-68
2021/08/21 12:20:23;;;;;;;;;;;;;;;;;;5132720;28;19923;-67
2021/08/21 12:22:50;;;;;;;;;;;;;;;;;;5133467;28;19935;-68
2021/08/21 12:25:16;;;;;;;;;;;;;;;;;;5133145;28;19930;-68
2021/08/21 12:27:42;;;;;;;;;;;;;;;;;;5133089;28;19924;-68
2021/08/21 12:30:09;;;;;;;;;;;;;;;;;;5133152;28;19931;-67
2021/08/21 12:32:35;;;;;;;;;;;;;;;;;;5133078;28;19946;-68
2021/08/21 12:35:01;;;;;;;;;;;;;;;;;;5133142;28;19924;-67
2021/08/21 12:37:27;;;;;;;;;;;;;;;;;;5133117;28;19946;-67
2021/08/21 12:39:54;;;;;;;;;;;;;;;;;;5133005;28;19931;-68
2021/08/21 12:42:20;;;;;;;;;;;;;;;;;;5133105;28;19983;-67
2021/08/21 12:44:46;;;;;;;;;;;;;;;;;;5133025;28;19931;-68
2021/08/21 12:47:13;;;;;;;;;;;;;;;;;;5132734;28;20374;-68
2021/08/21 12:49:39;;;;;;;;;;;;;;;;;;5132612;28;20018;-67
2021/08/21 12:52:06;;;;;;;;;;;;;;;;;;5133151;28;19930;-68
2021/08/21 12:54:32;;;;;;;;;;;;;;;;;;5132402;28;19924;-67
2021/08/21 12:56:58;;;;;;;;;;;;;;;;;;5133134;28;19923;-67
2021/08/21 12:59:25;;;;;;;;;;;;;;;;;;5132694;28;19923;-68
2021/08/21 13:01:51;;;;;;;;;;;;;;;;;;5133167;28;19924;-68
2021/08/21 13:04:17;;;;;;;;;;;;;;;;;;5132719;28;19923;-68
2021/08/21 13:06:43;;;;;;;;;;;;;;;;;;5132494;28;20297;-68
2021/08/21 13:09:10;;;;;;;;;;;;;;;;;;5133175;27;19928;-68
2021/08/21 13:11:36;;;;;;;;;;;;;;;;;;5136245;27;20377;-68
2021/08/21 13:14:02;;;;;;;;;;;;;;;;;;5136644;27;19930;-68
2021/08/21 13:16:29;;;;;;;;;;;;;;;;;;5136368;27;19924;-68
2021/08/21 13:18:55;;;;;;;;;;;;;;;;;;5136658;27;19923;-68
2021/08/21 13:21:21;;;;;;;;;;;;;;;;;;5135926;27;19923;-68
2021/08/21 13:23:47;;;;;;;;;;;;;;;;;;5136577;27;19963;-68
2021/08/21 13:26:14;;;;;;;;;;;;;;;;;;5136092;27;19923;-67
2021/08/21 13:28:40;;;;;;;;;;;;;;;;;;5136238;27;19928;-67
2021/08/21 13:31:06;;;;;;;;;;;;;;;;;;5136026;27;19930;-68
2021/08/21 13:33:33;;;;;;;;;;;;;;;;;;5136115;27;19930;-68
2021/08/21 13:35:59;;;;;;;;;;;;;;;;;;5135924;27;19924;-68
2021/08/21 13:38:25;;;;;;;;;;;;;;;;;;5136315;27;19923;-67
2021/08/21 13:40:51;;;;;;;;;;;;;;;;;;5136202;27;19930;-67
2021/08/21 13:43:18;;;;;;;;;;;;;;;;;;5135754;27;19931;-68
2021/08/21 13:45:44;;;;;;;;;;;;;;;;;;5135877;27;19923;-67
2021/08/21 13:48:10;;;;;;;;;;;;;;;;;;5135575;27;19934;-67
2021/08/21 13:50:37;;;;;;;;;;;;;;;;;;5135781;27;19924;-68
2021/08/21 13:53:03;;;;;;;;;;;;;;;;;;5135702;27;19924;-67
2021/08/21 13:55:29;;;;;;;;;;;;;;;;;;5135771;27;19931;-68
2021/08/21 13:57:55;;;;;;;;;;;;;;;;;;5135573;27;19924;-68
2021/08/21 14:00:22;;;;;;;;;;;;;;;;;;5135657;27;19923;-68
2021/08/21 14:02:48;;;;;;;;;;;;;;;;;;5135412;27;19930;-68
2021/08/21 14:05:14;;;;;;;;;;;;;;;;;;5135687;27;19923;-68
2021/08/21 14:07:41;;;;;;;;;;;;;;;;;;5135123;27;20245;-68
2021/08/21 14:10:07;;;;;;;;;;;;;;;;;;5135681;27;19923;-68
2021/08/21 14:12:33;;;;;;;;;;;;;;;;;;5135102;27;19931;-68
2021/08/21 14:15:02;;;;;;;;;;;;;;;;;;5135441;27;19946;-68
2021/08/21 14:17:28;;;;;;;;;;;;;;;;;;5135008;27;20286;-68
2021/08/21 14:19:54;;;;;;;;;;;;;;;;;;5134952;27;19924;-67
2021/08/21 14:22:21;;;;;;;;;;;;;;;;;;5134725;27;19927;-67
2021/08/21 14:24:47;;;;;;;;;;;;;;;;;;5135113;27;19930;-67
2021/08/21 14:27:13;;;;;;;;;;;;;;;;;;5135216;27;19946;-68
2021/08/21 14:29:39;;;;;;;;;;;;;;;;;;5134729;27;19923;-67
2021/08/21 14:32:06;;;;;;;;;;;;;;;;;;5135282;27;19924;-67
2021/08/21 14:34:32;;;;;;;;;;;;;;;;;;5134684;27;19923;-67
2021/08/21 14:36:58;;;;;;;;;;;;;;;;;;5135185;27;19923;-67
2021/08/21 14:39:25;;;;;;;;;;;;;;;;;;5134501;27;19923;-67
2021/08/21 14:41:51;;;;;;;;;;;;;;;;;;5134960;27;19927;-68
2021/08/21 14:44:17;;;;;;;;;;;;;;;;;;5134826;27;19930;-68
2021/08/21 14:46:43;;;;;;;;;;;;;;;;;;5134685;27;19930;-67
2021/08/21 14:49:10;;;;;;;;;;;;;;;;;;5134575;27;19923;-67
2021/08/21 14:51:36;;;;;;;;;;;;;;;;;;5134620;27;19923;-67
2021/08/21 14:54:02;;;;;;;;;;;;;;;;;;5134469;27;20392;-67
2021/08/21 14:56:31;;;;;;;;;;;;;;;;;;5134492;27;19931;-68
2021/08/21 14:58:58;;;;;;;;;;;;;;;;;;5134765;27;20281;-68
2021/08/21 15:01:24;;;;;;;;;;;;;;;;;;5134008;27;19924;-67
2021/08/21 15:03:50;;;;;;;;;;;;;;;;;;5134677;27;19950;-67
2021/08/21 15:06:17;;;;;;;;;;;;;;;;;;5134340;27;19931;-67
2021/08/21 15:08:43;;;;;;;;;;;;;;;;;;5133853;27;19976;-67
2021/08/21 15:11:09;;;;;;;;;;;;;;;;;;5134462;27;19923;-67
2021/08/21 15:13:35;;;;;;;;;;;;;;;;;;5133923;27;19924;-67
2021/08/21 15:16:02;;;;;;;;;;;;;;;;;;5134449;27;19927;-67
2021/08/21 15:18:28;;;;;;;;;;;;;;;;;;5133778;27;19930;-67
2021/08/21 15:20:55;;;;;;;;;;;;;;;;;;5133864;27;19923;-67
2021/08/21 15:23:21;;;;;;;;;;;;;;;;;;5133709;27;19927;-67
2021/08/21 15:25:47;;;;;;;;;;;;;;;;;;5134437;27;19930;-67
2021/08/21 15:28:13;;;;;;;;;;;;;;;;;;5133798;27;19924;-67
2021/08/21 15:30:42;;;;;;;;;;;;;;;;;;5133822;27;19923;-68
2021/08/21 15:33:08;;;;;;;;;;;;;;;;;;5134018;27;19930;-68
2021/08/21 15:35:34;;;;;;;;;;;;;;;;;;5133550;27;20385;-67
2021/08/21 15:38:01;;;;;;;;;;;;;;;;;;5134037;27;19923;-68
2021/08/21 15:40:27;;;;;;;;;;;;;;;;;;5133494;27;20400;-67
2021/08/21 15:42:53;;;;;;;;;;;;;;;;;;5134014;27;19924;-67
2021/08/21 15:45:19;;;;;;;;;;;;;;;;;;5133456;27;19930;-67
2021/08/21 15:47:46;;;;;;;;;;;;;;;;;;5133639;27;19931;-67
2021/08/21 15:50:12;;;;;;;;;;;;;;;;;;5133562;27;19934;-67
2021/08/21 15:52:38;;;;;;;;;;;;;;;;;;5133555;27;20328;-67
2021/08/21 15:55:05;;;;;;;;;;;;;;;;;;5133667;27;19924;-67
2021/08/21 15:57:31;;;;;;;;;;;;;;;;;;5133265;27;19930;-67
2021/08/21 15:59:57;;;;;;;;;;;;;;;;;;5133793;27;19931;-67
2021/08/21 16:02:23;;;;;;;;;;;;;;;;;;5133423;27;19924;-67
2021/08/21 16:04:50;;;;;;;;;;;;;;;;;;5133514;28;19924;-67
2021/08/21 16:07:16;;;;;;;;;;;;;;;;;;5133319;28;19923;-67
2021/08/21 16:09:42;;;;;;;;;;;;;;;;;;5133307;28;19950;-67
2021/08/21 16:12:08;;;;;;;;;;;;;;;;;;5133173;28;19923;-67
2021/08/21 16:14:35;;;;;;;;;;;;;;;;;;5133379;28;19923;-67
2021/08/21 16:17:02;;;;;;;;;;;;;;;;;;5133286;28;19923;-67
2021/08/21 16:19:28;;;;;;;;;;;;;;;;;;5133156;28;19927;-66
2021/08/21 16:21:54;;;;;;;;;;;;;;;;;;5132992;28;19923;-67
2021/08/21 16:24:20;;;;;;;;;;;;;;;;;;5133484;28;19931;-67
2021/08/21 16:26:47;;;;;;;;;;;;;;;;;;5133207;28;19923;-67
2021/08/21 16:29:13;;;;;;;;;;;;;;;;;;5133371;28;19923;-67
2021/08/21 16:31:39;;;;;;;;;;;;;;;;;;5133058;28;20017;-67
2021/08/21 16:34:06;;;;;;;;;;;;;;;;;;5133098;28;19924;-67
2021/08/21 16:36:32;;;;;;;;;;;;;;;;;;5132875;28;20038;-67
2021/08/21 16:38:58;;;;;;;;;;;;;;;;;;5133099;28;20301;-67